Saint Louis, Missouri
Traffic Map
Current Weather Conditions
Saint Louis, Missouri
Overcast
Overcast
-1°
Feels Like: -3°
Wind Chill: -3° Ceiling: 7000
Heat Index: -1° Visibility: 10mi
Dew Point: -4° Wind: 5mph
Humidity: 79% Direction: 80° (E)
Pressure: 30.29in Gusts: 0mph
Raw Report DataKCPS 180953Z AUTO 08004KT 10SM SCT013 OVC070 M01/M04 A3029 RMK AO2 SLP260 T10061039 TSNO
Traffic Incident Summary
Active as of:
Severity:
Category:
InformationThere was an issue retrieving the traffic information for this location. Please try a different location or try again shortly.
Advertisements
Track Severe Weather on mobile